createdAt,value
2019-02-03T00:00:10.626Z,100.00
2019-02-03T00:02:39.363Z,100.00
2019-02-03T00:05:09.108Z,100.00
2019-02-03T00:07:37.900Z,100.00
2019-02-03T00:10:09.207Z,100.00
2019-02-03T00:12:37.932Z,99.56
2019-02-03T00:15:12.124Z,97.50
2019-02-03T00:17:40.850Z,96.16
2019-02-03T00:20:11.575Z,97.02
2019-02-03T00:22:40.809Z,97.04
2019-02-03T00:25:10.424Z,97.49
2019-02-03T00:27:39.139Z,98.15
2019-02-03T00:30:11.244Z,98.40
2019-02-03T00:32:39.969Z,98.42
2019-02-03T00:35:09.273Z,99.09
2019-02-03T00:37:38.179Z,99.77
2019-02-03T00:40:09.931Z,100.00
2019-02-03T00:42:38.675Z,100.00
2019-02-03T00:45:10.497Z,100.00
2019-02-03T00:47:39.229Z,100.00
2019-02-03T00:50:13.690Z,100.00
2019-02-03T00:52:42.556Z,100.00
2019-02-03T00:55:16.906Z,100.00
2019-02-03T00:57:45.702Z,100.00
2019-02-03T01:00:17.492Z,100.00
2019-02-03T01:02:46.227Z,100.00
2019-02-03T01:05:17.727Z,100.00
2019-02-03T01:07:48.126Z,100.00
2019-02-03T01:10:22.125Z,100.00
2019-02-03T01:12:51.130Z,100.00
2019-02-03T01:15:20.139Z,99.92
2019-02-03T01:17:48.895Z,99.12
2019-02-03T01:20:20.557Z,98.97
2019-02-03T01:22:49.708Z,99.01
2019-02-03T01:25:18.913Z,97.77
2019-02-03T01:27:47.628Z,97.43
2019-02-03T01:30:19.154Z,95.71
2019-02-03T01:32:47.889Z,96.52
2019-02-03T01:35:16.718Z,97.35
2019-02-03T01:37:45.484Z,97.20
2019-02-03T01:40:20.913Z,97.75
2019-02-03T01:42:49.882Z,97.92
2019-02-03T01:45:22.898Z,96.68
2019-02-03T01:47:51.629Z,97.04
2019-02-03T01:50:20.912Z,97.38
2019-02-03T01:52:49.637Z,97.48
2019-02-03T01:55:26.517Z,97.79
2019-02-03T01:57:55.345Z,97.95
2019-02-03T02:00:26.516Z,98.03
2019-02-03T02:02:55.784Z,98.35
2019-02-03T02:05:24.610Z,98.95
2019-02-03T02:07:53.332Z,99.61
2019-02-03T02:10:24.634Z,100.00
2019-02-03T02:12:53.363Z,100.00
2019-02-03T02:15:22.391Z,100.00
2019-02-03T02:17:52.452Z,100.00
2019-02-03T02:20:23.627Z,100.00
2019-02-03T02:22:52.461Z,100.00
2019-02-03T02:25:21.483Z,99.79
2019-02-03T02:27:50.322Z,99.95
2019-02-03T02:30:24.267Z,100.00
2019-02-03T02:32:53.128Z,100.00
2019-02-03T02:35:21.960Z,100.00
2019-02-03T02:38:05.144Z,99.87
2019-02-03T02:40:23.004Z,100.00
2019-02-03T02:42:51.840Z,99.67
2019-02-03T02:45:21.266Z,99.58
2019-02-03T02:47:50.054Z,98.38
2019-02-03T02:50:27.495Z,97.17
2019-02-03T02:52:56.373Z,96.84
2019-02-03T02:55:25.204Z,96.60
2019-02-03T02:57:53.988Z,96.02
2019-02-03T03:00:25.371Z,96.14
2019-02-03T03:02:54.139Z,96.44
2019-02-03T03:05:22.962Z,96.92
2019-02-03T03:07:51.861Z,97.26
2019-02-03T03:10:21.365Z,97.49
2019-02-03T03:12:50.410Z,97.97
2019-02-03T03:15:22.991Z,98.20
2019-02-03T03:17:53.327Z,96.65
2019-02-03T03:20:22.752Z,96.26
2019-02-03T03:22:52.670Z,96.70
2019-02-03T03:25:22.293Z,96.94
2019-02-03T03:27:51.411Z,97.21
2019-02-03T03:30:25.620Z,96.41
2019-02-03T03:32:54.539Z,96.33
2019-02-03T03:35:23.867Z,97.02
2019-02-03T03:37:52.735Z,97.71
2019-02-03T03:40:23.865Z,97.86
2019-02-03T03:42:52.680Z,98.00
2019-02-03T03:45:21.591Z,98.35
2019-02-03T03:47:50.357Z,98.02
2019-02-03T03:50:19.647Z,98.29
2019-02-03T03:52:48.513Z,98.56
2019-02-03T03:55:17.241Z,98.85
2019-02-03T03:57:46.068Z,98.10
2019-02-03T04:00:25.813Z,97.81
2019-02-03T04:02:55.376Z,97.93
2019-02-03T04:05:24.740Z,98.04
2019-02-03T04:07:53.639Z,98.46
2019-02-03T04:10:24.066Z,98.93
2019-02-03T04:12:52.788Z,99.35
2019-02-03T04:15:22.421Z,99.49
2019-02-03T04:17:51.337Z,99.83
2019-02-03T04:20:30.521Z,99.98
2019-02-03T04:22:59.350Z,100.00
2019-02-03T04:25:28.178Z,100.00
2019-02-03T04:27:57.500Z,100.00
2019-02-03T04:30:27.678Z,100.00
2019-02-03T04:32:56.440Z,98.80
2019-02-03T04:35:25.262Z,98.49
2019-02-03T04:37:54.016Z,98.82
2019-02-03T04:40:23.335Z,99.61
2019-02-03T04:42:52.221Z,100.00
2019-02-03T04:45:22.690Z,100.00
2019-02-03T04:47:51.396Z,100.00
2019-02-03T04:50:21.710Z,100.00
2019-02-03T04:52:50.432Z,100.00
2019-02-03T04:55:21.335Z,100.00
2019-02-03T04:57:50.124Z,100.00
2019-02-03T05:00:21.213Z,100.00
2019-02-03T05:02:49.948Z,100.00
2019-02-03T05:05:19.210Z,100.00
2019-02-03T05:08:40.873Z,100.00
2019-02-03T05:11:05.858Z,100.00
2019-02-03T05:13:35.158Z,100.00
2019-02-03T05:16:03.891Z,100.00
2019-02-03T05:18:32.717Z,100.00
2019-02-03T05:21:02.937Z,100.00
2019-02-03T05:23:31.658Z,100.00
2019-02-03T05:26:00.447Z,100.00
2019-02-03T05:28:29.547Z,100.00
2019-02-03T05:31:00.835Z,100.00
2019-02-03T05:33:29.718Z,100.00
2019-02-03T05:35:58.442Z,100.00
2019-02-03T05:38:27.165Z,100.00
2019-02-03T05:40:55.967Z,100.00
2019-02-03T05:43:24.697Z,100.00
2019-02-03T05:45:53.435Z,100.00
2019-02-03T05:48:22.312Z,100.00
2019-02-03T05:50:51.041Z,100.00
2019-02-03T05:53:19.790Z,100.00
2019-02-03T05:55:48.667Z,100.00
2019-02-03T05:58:17.395Z,100.00
2019-02-03T06:00:46.121Z,100.00
2019-02-03T06:03:14.974Z,100.00
2019-02-03T06:05:43.699Z,100.00
2019-02-03T06:08:12.435Z,100.00
2019-02-03T06:10:41.753Z,100.00
2019-02-03T06:13:10.449Z,100.00
2019-02-03T06:15:39.188Z,100.00
2019-02-03T06:18:07.988Z,100.00
2019-02-03T06:20:36.721Z,100.00
2019-02-03T06:23:05.673Z,100.00
2019-02-03T06:25:35.263Z,100.00
2019-02-03T06:28:04.199Z,100.00
2019-02-03T06:30:38.579Z,98.95
2019-02-03T06:33:07.306Z,95.91
2019-02-03T06:35:36.138Z,96.22
2019-02-03T06:38:05.203Z,97.10
2019-02-03T06:40:33.929Z,96.81
2019-02-03T06:43:02.661Z,97.77
2019-02-03T06:45:33.004Z,98.47
2019-02-03T06:48:01.740Z,98.64
2019-02-03T06:50:30.482Z,97.58
2019-02-03T06:52:59.369Z,96.03
2019-02-03T06:55:28.095Z,96.03
2019-02-03T06:57:56.823Z,95.02
2019-02-03T07:00:26.044Z,94.74
2019-02-03T07:02:54.767Z,95.40
2019-02-03T07:05:23.489Z,91.78
2019-02-03T07:07:52.349Z,90.27
2019-02-03T07:10:21.097Z,90.67
2019-02-03T07:12:49.823Z,91.14
2019-02-03T07:15:18.704Z,89.67
2019-02-03T07:17:47.443Z,89.66
2019-02-03T07:20:17.780Z,88.90
2019-02-03T07:22:46.554Z,88.85
2019-02-03T07:25:15.278Z,88.71
2019-02-03T07:27:44.012Z,88.88
2019-02-03T07:30:17.945Z,88.51
2019-02-03T07:32:46.666Z,89.17
2019-02-03T07:35:15.494Z,88.14
2019-02-03T07:37:44.264Z,87.37
2019-02-03T07:40:18.567Z,87.25
2019-02-03T07:42:47.290Z,84.82
2019-02-03T07:45:16.167Z,83.94
2019-02-03T07:47:45.207Z,85.51
2019-02-03T07:50:17.634Z,86.61
2019-02-03T07:52:46.535Z,86.13
2019-02-03T07:55:16.065Z,86.44
2019-02-03T07:57:44.791Z,86.54
2019-02-03T08:00:15.857Z,86.32
2019-02-03T08:02:44.683Z,85.52
2019-02-03T08:05:13.592Z,87.55
2019-02-03T08:07:42.378Z,86.97
2019-02-03T08:10:24.563Z,86.45
2019-02-03T08:12:46.315Z,85.39
2019-02-03T08:15:20.609Z,85.68
2019-02-03T08:17:49.501Z,85.44
2019-02-03T08:20:23.258Z,84.52
2019-02-03T08:22:51.977Z,84.10
2019-02-03T08:25:20.910Z,84.82
2019-02-03T08:27:50.340Z,83.13
2019-02-03T08:30:21.924Z,83.08
2019-02-03T08:32:50.654Z,83.39
2019-02-03T08:35:20.902Z,82.12
2019-02-03T08:37:49.978Z,82.04
2019-02-03T08:40:21.683Z,82.86
2019-02-03T08:42:50.681Z,80.37
2019-02-03T08:45:23.867Z,81.17
2019-02-03T08:47:52.601Z,78.55
2019-02-03T08:50:25.793Z,77.94
2019-02-03T08:52:54.900Z,77.18
2019-02-03T08:55:23.634Z,75.88
2019-02-03T08:57:52.414Z,74.80
2019-02-03T09:00:32.067Z,72.69
2019-02-03T09:03:00.845Z,71.07
2019-02-03T09:05:30.050Z,69.75
2019-02-03T09:07:58.788Z,69.86
2019-02-03T09:10:27.560Z,68.08
2019-02-03T09:12:56.301Z,68.03
2019-02-03T09:15:27.944Z,66.36
2019-02-03T09:17:56.872Z,65.76
2019-02-03T09:20:28.055Z,65.26
2019-02-03T09:22:56.883Z,64.50
2019-02-03T09:25:25.696Z,65.23
2019-02-03T09:27:54.420Z,65.00
2019-02-03T09:30:25.609Z,65.43
2019-02-03T09:32:54.959Z,65.59
2019-02-03T09:35:23.686Z,63.64
2019-02-03T09:37:52.619Z,64.84
2019-02-03T09:40:23.910Z,65.60
2019-02-03T09:42:52.914Z,61.15
2019-02-03T09:45:23.246Z,63.29
2019-02-03T09:47:52.288Z,63.76
2019-02-03T09:50:26.375Z,65.22
2019-02-03T09:52:56.904Z,65.80
2019-02-03T09:55:25.647Z,65.77
2019-02-03T09:57:54.683Z,66.52
2019-02-03T10:00:42.371Z,67.29
2019-02-03T10:03:13.019Z,67.41
2019-02-03T10:05:41.781Z,69.20
2019-02-03T10:08:10.585Z,68.87
2019-02-03T10:10:41.802Z,67.87
2019-02-03T10:13:10.834Z,68.86
2019-02-03T10:15:41.396Z,66.29
2019-02-03T10:18:11.738Z,64.90
2019-02-03T10:20:40.751Z,66.56
2019-02-03T10:23:09.546Z,67.77
2019-02-03T10:25:38.278Z,67.38
2019-02-03T10:28:07.480Z,64.79
2019-02-03T10:30:36.443Z,64.27
2019-02-03T10:33:05.577Z,65.46
2019-02-03T10:35:35.739Z,66.41
2019-02-03T10:38:06.183Z,65.81
2019-02-03T10:40:40.568Z,65.39
2019-02-03T10:43:10.255Z,65.16
2019-02-03T10:45:39.103Z,63.84
2019-02-03T10:48:08.053Z,64.68
2019-02-03T10:50:39.413Z,62.46
2019-02-03T10:53:12.792Z,63.68
2019-02-03T10:55:41.627Z,63.88
2019-02-03T10:58:10.616Z,65.74
2019-02-03T11:00:41.993Z,64.75
2019-02-03T11:03:10.715Z,65.78
2019-02-03T11:05:45.517Z,65.46
2019-02-03T11:08:14.456Z,65.71
2019-02-03T11:10:43.214Z,68.12
2019-02-03T11:13:12.203Z,69.02
2019-02-03T11:15:40.931Z,69.16
2019-02-03T11:18:09.676Z,68.43
2019-02-03T11:20:40.795Z,68.31
2019-02-03T11:23:12.366Z,68.25
2019-02-03T11:25:41.208Z,68.36
2019-02-03T11:28:10.100Z,67.68
2019-02-03T11:30:38.938Z,67.22
2019-02-03T11:33:09.744Z,68.64
2019-02-03T11:35:38.382Z,69.48
2019-02-03T11:38:07.406Z,68.13
2019-02-03T11:40:38.043Z,68.82
2019-02-03T11:43:08.095Z,69.42
2019-02-03T11:45:41.780Z,71.23
2019-02-03T11:48:16.246Z,70.74
2019-02-03T11:50:46.295Z,70.82
2019-02-03T11:53:18.072Z,70.41
2019-02-03T11:55:47.045Z,71.92
2019-02-03T11:58:15.976Z,72.20
2019-02-03T12:00:45.200Z,72.17
2019-02-03T12:03:13.974Z,71.90
2019-02-03T12:05:42.714Z,71.69
2019-02-03T12:08:11.432Z,72.26
2019-02-03T12:10:40.213Z,73.08
2019-02-03T12:13:09.252Z,72.67
2019-02-03T12:15:38.171Z,73.01
2019-02-03T12:18:07.297Z,71.72
2019-02-03T12:20:36.535Z,73.01
2019-02-03T12:23:06.068Z,73.19
2019-02-03T12:25:38.071Z,72.92
2019-02-03T12:28:07.740Z,72.89
2019-02-03T12:30:36.587Z,74.44
2019-02-03T12:33:06.827Z,73.42
2019-02-03T12:35:36.164Z,74.08
2019-02-03T12:38:05.716Z,72.72
2019-02-03T12:40:46.220Z,74.36
2019-02-03T12:43:15.862Z,74.55
2019-02-03T12:45:44.609Z,74.03
2019-02-03T12:48:13.396Z,74.68
2019-02-03T12:50:42.123Z,74.74
2019-02-03T12:53:11.282Z,75.08
2019-02-03T12:55:40.155Z,75.82
2019-02-03T12:58:08.885Z,75.71
2019-02-03T13:00:38.025Z,74.98
2019-02-03T13:03:08.711Z,75.98
2019-02-03T13:05:37.442Z,75.47
2019-02-03T13:08:06.691Z,75.46
2019-02-03T13:10:37.388Z,75.47
2019-02-03T13:13:07.245Z,75.38
2019-02-03T13:15:45.075Z,75.28
2019-02-03T13:18:13.993Z,76.21
2019-02-03T13:20:43.248Z,76.68
2019-02-03T13:23:12.377Z,76.47
2019-02-03T13:25:41.215Z,76.12
2019-02-03T13:28:09.953Z,76.85
2019-02-03T13:30:41.422Z,76.35
2019-02-03T13:33:10.632Z,77.07
2019-02-03T13:35:39.359Z,77.28
2019-02-03T13:38:08.486Z,76.49
2019-02-03T13:40:37.443Z,76.32
2019-02-03T13:43:06.678Z,77.17
2019-02-03T13:45:35.796Z,76.73
2019-02-03T13:48:06.897Z,77.78
2019-02-03T13:50:35.640Z,78.43
2019-02-03T13:53:04.737Z,78.74
2019-02-03T13:55:33.744Z,78.77
2019-02-03T13:58:02.486Z,79.45
2019-02-03T14:00:45.765Z,79.90
2019-02-03T14:03:18.789Z,80.27
2019-02-03T14:05:47.520Z,79.85
2019-02-03T14:08:16.440Z,79.02
2019-02-03T14:10:45.340Z,78.99
2019-02-03T14:13:14.076Z,79.49
2019-02-03T14:15:42.864Z,80.25
2019-02-03T14:18:11.698Z,80.43
2019-02-03T14:20:40.448Z,80.58
2019-02-03T14:23:09.328Z,80.89
2019-02-03T14:25:38.083Z,80.98
2019-02-03T14:28:07.831Z,80.95
2019-02-03T14:30:41.919Z,81.90
2019-02-03T14:33:10.864Z,82.37
2019-02-03T14:35:41.029Z,81.48
2019-02-03T14:38:10.441Z,81.99
2019-02-03T14:40:39.182Z,82.88
2019-02-03T14:43:08.101Z,83.24
2019-02-03T14:45:37.716Z,83.29
2019-02-03T14:48:06.546Z,83.01
2019-02-03T14:50:35.776Z,83.18
2019-02-03T14:53:10.521Z,82.75
2019-02-03T14:55:41.999Z,83.99
2019-02-03T14:58:10.750Z,83.48
2019-02-03T15:00:42.487Z,83.47
2019-02-03T15:03:13.996Z,83.32
2019-02-03T15:05:42.743Z,83.93
2019-02-03T15:08:12.747Z,83.06
2019-02-03T15:10:41.508Z,83.43
2019-02-03T15:13:14.172Z,84.66
2019-02-03T15:15:40.861Z,84.82
2019-02-03T15:18:09.705Z,84.08
2019-02-03T15:20:38.555Z,83.77
2019-02-03T15:23:08.371Z,84.44
2019-02-03T15:25:37.124Z,85.06
2019-02-03T15:28:10.420Z,85.66
2019-02-03T15:30:41.754Z,85.60
2019-02-03T15:33:11.056Z,85.71
2019-02-03T15:35:39.806Z,86.15
2019-02-03T15:38:09.199Z,87.16
2019-02-03T15:40:37.945Z,87.63
2019-02-03T15:43:06.863Z,89.03
2019-02-03T15:45:35.728Z,89.74
2019-02-03T15:48:05.160Z,89.26
2019-02-03T15:50:33.905Z,88.52
2019-02-03T15:53:02.808Z,88.74
2019-02-03T15:55:36.742Z,90.24
2019-02-03T15:58:07.963Z,91.58
2019-02-03T16:00:45.851Z,90.63
2019-02-03T16:03:14.743Z,91.48
2019-02-03T16:05:43.474Z,90.52
2019-02-03T16:08:12.282Z,90.97
2019-02-03T16:10:41.268Z,90.94
2019-02-03T16:13:10.115Z,91.23
2019-02-03T16:15:38.881Z,91.00
2019-02-03T16:18:08.293Z,91.70
2019-02-03T16:20:37.017Z,92.26
2019-02-03T16:23:05.957Z,91.51
2019-02-03T16:25:34.737Z,91.56
2019-02-03T16:28:03.480Z,91.54
2019-02-03T16:30:37.790Z,93.19
2019-02-03T16:33:09.327Z,92.98
2019-02-03T16:35:39.746Z,92.92
2019-02-03T16:38:09.478Z,93.49
2019-02-03T16:40:40.923Z,92.99
2019-02-03T16:43:09.664Z,92.61
2019-02-03T16:45:38.418Z,92.54
2019-02-03T16:48:07.711Z,92.51
2019-02-03T16:50:36.560Z,92.40
2019-02-03T16:53:07.569Z,92.54
2019-02-03T16:55:39.289Z,93.04
2019-02-03T16:58:08.071Z,92.91
2019-02-03T17:00:36.813Z,92.98
2019-02-03T17:03:06.530Z,93.39
2019-02-03T17:05:35.375Z,93.50
2019-02-03T17:08:04.921Z,94.43
2019-02-03T17:10:37.968Z,94.04
2019-02-03T17:13:06.779Z,94.02
2019-02-03T17:15:45.115Z,93.90
2019-02-03T17:18:14.170Z,94.16
2019-02-03T17:20:42.920Z,94.66
2019-02-03T17:23:11.742Z,93.87
2019-02-03T17:25:46.042Z,93.63
2019-02-03T17:28:15.856Z,94.08
2019-02-03T17:30:44.657Z,94.09
2019-02-03T17:33:13.405Z,93.95
2019-02-03T17:35:53.556Z,93.93
2019-02-03T17:38:12.887Z,95.62
2019-02-03T17:40:41.624Z,96.71
2019-02-03T17:43:10.646Z,96.78
2019-02-03T17:45:39.898Z,97.56
2019-02-03T17:48:09.917Z,97.55
2019-02-03T17:50:38.648Z,96.49
2019-02-03T17:53:07.572Z,96.00
2019-02-03T17:55:36.284Z,95.55
2019-02-03T17:58:05.433Z,95.48
2019-02-03T18:00:39.000Z,95.99
2019-02-03T18:03:08.242Z,96.05
2019-02-03T18:05:36.986Z,96.17
2019-02-03T18:08:07.758Z,95.42
2019-02-03T18:10:36.868Z,95.78
2019-02-03T18:13:06.608Z,95.95
2019-02-03T18:15:35.503Z,96.06
2019-02-03T18:18:05.610Z,96.43
2019-02-03T18:20:34.355Z,96.94
2019-02-03T18:23:03.515Z,97.23
2019-02-03T18:25:36.644Z,97.98
2019-02-03T18:28:05.581Z,98.31
2019-02-03T18:30:37.312Z,98.10
2019-02-03T18:33:06.645Z,97.09
2019-02-03T18:35:35.443Z,96.74
2019-02-03T18:38:09.934Z,97.14
2019-02-03T18:40:38.695Z,97.85
2019-02-03T18:43:07.534Z,97.70
2019-02-03T18:45:36.804Z,97.54
2019-02-03T18:48:05.744Z,97.73
2019-02-03T18:50:34.959Z,98.09
2019-02-03T18:53:03.900Z,98.78
2019-02-03T18:55:38.451Z,99.53
2019-02-03T18:58:07.702Z,99.59
2019-02-03T19:00:38.370Z,99.30
2019-02-03T19:03:09.284Z,99.05
2019-02-03T19:05:40.717Z,98.92
2019-02-03T19:08:10.371Z,99.10
2019-02-03T19:10:39.117Z,98.89
2019-02-03T19:13:07.864Z,98.66
2019-02-03T19:15:36.665Z,99.03
2019-02-03T19:18:06.406Z,99.06
2019-02-03T19:20:43.711Z,99.09
2019-02-03T19:23:14.049Z,98.62
2019-02-03T19:25:42.995Z,98.35
2019-02-03T19:28:11.924Z,97.69
2019-02-03T19:30:40.653Z,97.74
2019-02-03T19:33:09.388Z,98.27
2019-02-03T19:35:38.185Z,98.31
2019-02-03T19:38:08.124Z,98.10
2019-02-03T19:40:36.870Z,97.94
2019-02-03T19:43:07.560Z,98.45
2019-02-03T19:45:36.433Z,99.29
2019-02-03T19:48:06.156Z,100.00
2019-02-03T19:50:37.715Z,100.00
2019-02-03T19:53:07.583Z,100.00
2019-02-03T19:55:36.312Z,100.00
2019-02-03T19:58:06.984Z,100.00
2019-02-03T20:00:40.995Z,100.00
2019-02-03T20:03:09.830Z,100.00
2019-02-03T20:05:38.921Z,100.00
2019-02-03T20:08:07.850Z,100.00
2019-02-03T20:10:37.370Z,99.73
2019-02-03T20:13:07.314Z,99.17
2019-02-03T20:15:36.150Z,98.37
2019-02-03T20:18:05.688Z,98.81
2019-02-03T20:20:39.218Z,99.35
2019-02-03T20:23:08.316Z,99.77
2019-02-03T20:25:37.048Z,100.00
2019-02-03T20:28:07.734Z,99.89
2019-02-03T20:30:38.990Z,100.00
2019-02-03T20:33:06.932Z,100.00
2019-02-03T20:35:35.955Z,100.00
2019-02-03T20:38:06.698Z,99.94
2019-02-03T20:40:41.423Z,98.69
2019-02-03T20:43:10.303Z,97.54
2019-02-03T20:45:48.918Z,98.67
2019-02-03T20:48:10.837Z,100.00
2019-02-03T20:50:40.047Z,100.00
2019-02-03T20:53:09.718Z,99.77
2019-02-03T20:55:38.589Z,98.68
2019-02-03T20:58:07.316Z,98.09
2019-02-03T21:00:37.452Z,98.51
2019-02-03T21:03:07.001Z,99.29
2019-02-03T21:05:36.006Z,98.80
2019-02-03T21:08:05.252Z,98.59
2019-02-03T21:10:34.153Z,98.96
2019-02-03T21:13:10.627Z,99.10
2019-02-03T21:15:34.277Z,99.44
2019-02-03T21:18:03.771Z,99.36
2019-02-03T21:20:34.601Z,100.00
2019-02-03T21:23:03.543Z,100.00
2019-02-03T21:25:32.719Z,99.50
2019-02-03T21:28:01.455Z,99.12
2019-02-03T21:30:35.888Z,99.22
2019-02-03T21:33:04.951Z,99.76
2019-02-03T21:35:33.672Z,99.36
2019-02-03T21:38:02.602Z,98.94
2019-02-03T21:40:32.373Z,98.02
2019-02-03T21:43:01.103Z,98.08
2019-02-03T21:45:29.858Z,99.21
2019-02-03T21:47:58.719Z,99.57
2019-02-03T21:50:29.749Z,100.00
2019-02-03T21:52:59.186Z,100.00
2019-02-03T21:55:28.058Z,100.00
2019-02-03T21:57:56.886Z,99.87
2019-02-03T22:00:30.981Z,99.77
2019-02-03T22:03:00.161Z,99.74
2019-02-03T22:05:29.493Z,99.95
2019-02-03T22:07:58.227Z,100.00
2019-02-03T22:10:29.791Z,100.00
2019-02-03T22:12:59.006Z,100.00
2019-02-03T22:15:27.746Z,100.00
2019-02-03T22:17:56.640Z,100.00
2019-02-03T22:20:25.477Z,100.00
2019-02-03T22:22:54.215Z,100.00
2019-02-03T22:25:24.121Z,100.00
2019-02-03T22:27:53.331Z,100.00
2019-02-03T22:30:24.272Z,100.00
2019-02-03T22:32:53.140Z,100.00
2019-02-03T22:35:21.871Z,100.00
2019-02-03T22:37:50.604Z,100.00
2019-02-03T22:40:20.727Z,100.00
2019-02-03T22:42:49.460Z,100.00
2019-02-03T22:45:20.497Z,100.00
2019-02-03T22:47:49.327Z,100.00
2019-02-03T22:50:26.337Z,100.00
2019-02-03T22:52:55.232Z,100.00
2019-02-03T22:55:23.959Z,100.00
2019-02-03T22:57:52.687Z,100.00
2019-02-03T23:00:43.916Z,99.07
2019-02-03T23:03:12.920Z,97.56
2019-02-03T23:05:41.642Z,97.70
2019-02-03T23:08:10.414Z,97.82
2019-02-03T23:10:39.134Z,98.46
2019-02-03T23:13:07.856Z,99.26
2019-02-03T23:15:36.778Z,99.99
2019-02-03T23:18:06.171Z,99.33
2019-02-03T23:20:34.939Z,99.02
2019-02-03T23:23:03.831Z,99.67
2019-02-03T23:25:32.562Z,100.00
2019-02-03T23:28:01.284Z,100.00
2019-02-03T23:30:30.069Z,100.00
2019-02-03T23:32:59.273Z,100.00
2019-02-03T23:35:28.000Z,100.00
2019-02-03T23:37:56.849Z,100.00
2019-02-03T23:40:25.575Z,100.00
2019-02-03T23:42:54.305Z,100.00
2019-02-03T23:45:23.066Z,100.00
2019-02-03T23:47:52.066Z,100.00
2019-02-03T23:50:23.840Z,100.00
2019-02-03T23:52:52.697Z,100.00
2019-02-03T23:55:21.433Z,100.00
2019-02-03T23:57:50.168Z,100.00
